sensor_id;sensor_type;location;lat;lon;timestamp;pressure;altitude;pressure_sealevel;temperature;humidity
49297;BME280;35163;48.878;18.040;2023-05-21T00:01:05;98651.66;;;18.84;76.01
49297;BME280;35163;48.878;18.040;2023-05-21T00:03:31;98653.25;;;18.72;76.75
49297;BME280;35163;48.878;18.040;2023-05-21T00:05:59;98647.84;;;18.75;76.12
49297;BME280;35163;48.878;18.040;2023-05-21T00:08:27;98653.38;;;18.70;76.47
49297;BME280;35163;48.878;18.040;2023-05-21T00:10:53;98649.28;;;18.66;76.66
49297;BME280;35163;48.878;18.040;2023-05-21T00:13:21;98655.31;;;18.67;76.23
49297;BME280;35163;48.878;18.040;2023-05-21T00:15:47;98644.38;;;18.60;76.91
49297;BME280;35163;48.878;18.040;2023-05-21T00:18:14;98648.78;;;18.60;76.66
49297;BME280;35163;48.878;18.040;2023-05-21T00:20:41;98659.44;;;18.56;77.14
49297;BME280;35163;48.878;18.040;2023-05-21T00:23:08;98658.06;;;18.51;76.53
49297;BME280;35163;48.878;18.040;2023-05-21T00:25:35;98652.06;;;18.49;76.68
49297;BME280;35163;48.878;18.040;2023-05-21T00:28:02;98660.13;;;18.45;77.01
49297;BME280;35163;48.878;18.040;2023-05-21T00:30:29;98656.75;;;18.43;76.59
49297;BME280;35163;48.878;18.040;2023-05-21T00:32:55;98647.19;;;18.42;76.54
49297;BME280;35163;48.878;18.040;2023-05-21T00:35:24;98654.66;;;18.34;76.63
49297;BME280;35163;48.878;18.040;2023-05-21T00:37:50;98653.28;;;18.28;76.60
49297;BME280;35163;48.878;18.040;2023-05-21T00:40:19;98650.38;;;18.33;75.88
49297;BME280;35163;48.878;18.040;2023-05-21T00:42:46;98646.25;;;18.29;75.91
49297;BME280;35163;48.878;18.040;2023-05-21T00:45:13;98635.44;;;18.35;75.20
49297;BME280;35163;48.878;18.040;2023-05-21T00:47:43;98635.44;;;18.35;74.98
49297;BME280;35163;48.878;18.040;2023-05-21T00:50:11;98636.72;;;18.28;74.82
49297;BME280;35163;48.878;18.040;2023-05-21T00:52:42;98635.44;;;18.35;74.36
49297;BME280;35163;48.878;18.040;2023-05-21T00:55:09;98636.72;;;18.28;74.27
49297;BME280;35163;48.878;18.040;2023-05-21T00:57:36;98637.47;;;18.30;74.19
49297;BME280;35163;48.878;18.040;2023-05-21T01:00:06;98640.00;;;18.31;73.75
49297;BME280;35163;48.878;18.040;2023-05-21T01:02:35;98631.19;;;18.32;73.57
49297;BME280;35163;48.878;18.040;2023-05-21T01:05:03;98637.28;;;18.33;73.39
49297;BME280;35163;48.878;18.040;2023-05-21T01:07:33;98629.91;;;18.40;73.23
49297;BME280;35163;48.878;18.040;2023-05-21T01:10:05;98628.31;;;18.37;73.82
49297;BME280;35163;48.878;18.040;2023-05-21T01:12:37;98634.97;;;18.28;74.58
49297;BME280;35163;48.878;18.040;2023-05-21T01:15:07;98634.97;;;18.12;75.99
49297;BME280;35163;48.878;18.040;2023-05-21T01:17:37;98642.44;;;18.04;76.09
49297;BME280;35163;48.878;18.040;2023-05-21T01:20:05;98641.97;;;17.97;76.31
49297;BME280;35163;48.878;18.040;2023-05-21T01:25:09;98631.56;;;17.81;77.26
49297;BME280;35163;48.878;18.040;2023-05-21T01:27:36;98624.47;;;17.83;76.87
49297;BME280;35163;48.878;18.040;2023-05-21T01:30:03;98631.56;;;17.81;77.18
49297;BME280;35163;48.878;18.040;2023-05-21T01:32:32;98626.88;;;17.71;77.29
49297;BME280;35163;48.878;18.040;2023-05-21T01:35:13;98623.88;;;17.63;77.82
49297;BME280;35163;48.878;18.040;2023-05-21T01:40:46;98630.75;;;17.64;77.66
49297;BME280;35163;48.878;18.040;2023-05-21T01:43:18;98631.31;;;17.55;78.08
49297;BME280;35163;48.878;18.040;2023-05-21T01:45:46;98623.13;;;17.45;78.15
49297;BME280;35163;48.878;18.040;2023-05-21T01:48:13;98612.00;;;17.41;78.59
49297;BME280;35163;48.878;18.040;2023-05-21T01:50:47;98612.84;;;17.42;78.40
49297;BME280;35163;48.878;18.040;2023-05-21T01:53:15;98620.88;;;17.39;78.58
49297;BME280;35163;48.878;18.040;2023-05-21T01:55:45;98626.94;;;17.39;78.42
49297;BME280;35163;48.878;18.040;2023-05-21T01:58:12;98629.97;;;17.31;78.48
49297;BME280;35163;48.878;18.040;2023-05-21T02:00:39;98633.53;;;17.30;78.65
49297;BME280;35163;48.878;18.040;2023-05-21T02:03:06;98632.50;;;17.33;78.59
49297;BME280;35163;48.878;18.040;2023-05-21T02:05:36;98623.00;;;17.32;78.49
49297;BME280;35163;48.878;18.040;2023-05-21T02:08:03;98617.84;;;17.30;78.77
49297;BME280;35163;48.878;18.040;2023-05-21T02:10:30;98621.28;;;17.31;78.20
49297;BME280;35163;48.878;18.040;2023-05-21T02:12:57;98617.94;;;17.29;78.14
49297;BME280;35163;48.878;18.040;2023-05-21T02:15:24;98623.06;;;17.30;78.23
49297;BME280;35163;48.878;18.040;2023-05-21T02:17:54;98627.53;;;17.28;78.13
49297;BME280;35163;48.878;18.040;2023-05-21T02:20:21;98629.47;;;17.24;78.34
49297;BME280;35163;48.878;18.040;2023-05-21T02:22:48;98630.41;;;17.23;78.52
49297;BME280;35163;48.878;18.040;2023-05-21T02:25:16;98629.06;;;17.16;79.35
49297;BME280;35163;48.878;18.040;2023-05-21T02:27:45;98616.00;;;17.16;79.35
49297;BME280;35163;48.878;18.040;2023-05-21T02:30:13;98624.59;;;17.18;79.16
49297;BME280;35163;48.878;18.040;2023-05-21T02:32:41;98611.81;;;17.14;79.91
49297;BME280;35163;48.878;18.040;2023-05-21T02:35:10;98617.25;;;17.09;80.12
49297;BME280;35163;48.878;18.040;2023-05-21T02:37:38;98617.25;;;17.09;80.02
49297;BME280;35163;48.878;18.040;2023-05-21T02:40:10;98611.25;;;17.07;80.10
49297;BME280;35163;48.878;18.040;2023-05-21T02:42:38;98611.25;;;17.07;80.08
49297;BME280;35163;48.878;18.040;2023-05-21T02:45:09;98611.25;;;17.07;79.79
49297;BME280;35163;48.878;18.040;2023-05-21T02:47:37;98614.47;;;17.12;79.52
49297;BME280;35163;48.878;18.040;2023-05-21T02:50:05;98612.94;;;17.08;79.97
49297;BME280;35163;48.878;18.040;2023-05-21T02:52:35;98618.03;;;17.11;79.53
49297;BME280;35163;48.878;18.040;2023-05-21T02:55:02;98608.72;;;17.05;79.66
49297;BME280;35163;48.878;18.040;2023-05-21T02:57:29;98607.59;;;17.11;79.30
49297;BME280;35163;48.878;18.040;2023-05-21T02:59:56;98612.91;;;17.09;79.17
49297;BME280;35163;48.878;18.040;2023-05-21T03:02:22;98607.81;;;17.06;79.33
49297;BME280;35163;48.878;18.040;2023-05-21T03:04:49;98607.91;;;17.05;79.41
49297;BME280;35163;48.878;18.040;2023-05-21T03:07:17;98614.78;;;17.06;79.29
49297;BME280;35163;48.878;18.040;2023-05-21T03:09:45;98610.91;;;16.97;79.87
49297;BME280;35163;48.878;18.040;2023-05-21T03:12:12;98605.53;;;17.00;79.70
49297;BME280;35163;48.878;18.040;2023-05-21T03:14:39;98601.25;;;16.99;79.29
49297;BME280;35163;48.878;18.040;2023-05-21T03:17:09;98604.53;;;17.03;79.03
49297;BME280;35163;48.878;18.040;2023-05-21T03:19:40;98603.59;;;17.04;78.17
49297;BME280;35163;48.878;18.040;2023-05-21T03:22:09;98604.53;;;17.03;77.99
49297;BME280;35163;48.878;18.040;2023-05-21T03:24:37;98604.34;;;17.06;77.86
49297;BME280;35163;48.878;18.040;2023-05-21T03:27:04;98597.38;;;17.06;77.36
49297;BME280;35163;48.878;18.040;2023-05-21T03:29:34;98601.75;;;17.06;77.46
49297;BME280;35163;48.878;18.040;2023-05-21T03:32:00;98598.19;;;17.07;77.16
49297;BME280;35163;48.878;18.040;2023-05-21T03:34:27;98599.88;;;17.08;77.09
49297;BME280;35163;48.878;18.040;2023-05-21T03:36:56;98587.53;;;17.11;76.99
49297;BME280;35163;48.878;18.040;2023-05-21T03:39:23;98584.84;;;17.13;76.70
49297;BME280;35163;48.878;18.040;2023-05-21T03:41:50;98583.56;;;17.20;76.37
49297;BME280;35163;48.878;18.040;2023-05-21T03:44:19;98578.41;;;17.19;76.47
49297;BME280;35163;48.878;18.040;2023-05-21T03:46:45;98589.63;;;17.21;76.48
49297;BME280;35163;48.878;18.040;2023-05-21T03:49:13;98586.00;;;17.23;76.04
49297;BME280;35163;48.878;18.040;2023-05-21T03:51:39;98587.69;;;17.24;75.55
49297;BME280;35163;48.878;18.040;2023-05-21T03:54:09;98591.72;;;17.30;75.62
49297;BME280;35163;48.878;18.040;2023-05-21T03:56:35;98583.97;;;17.29;75.58
49297;BME280;35163;48.878;18.040;2023-05-21T03:59:02;98584.88;;;17.28;75.43
49297;BME280;35163;48.878;18.040;2023-05-21T04:01:29;98577.72;;;17.31;75.44
49297;BME280;35163;48.878;18.040;2023-05-21T04:03:58;98588.16;;;17.31;75.13
49297;BME280;35163;48.878;18.040;2023-05-21T04:06:25;98581.44;;;17.27;75.08
49297;BME280;35163;48.878;18.040;2023-05-21T04:08:51;98585.72;;;17.28;74.94
49297;BME280;35163;48.878;18.040;2023-05-21T04:11:21;98587.50;;;17.28;75.06
49297;BME280;35163;48.878;18.040;2023-05-21T04:13:51;98595.16;;;17.31;75.13
49297;BME280;35163;48.878;18.040;2023-05-21T04:16:18;98599.56;;;17.30;75.14
49297;BME280;35163;48.878;18.040;2023-05-21T04:18:45;98589.88;;;17.32;74.95
49297;BME280;35163;48.878;18.040;2023-05-21T04:21:12;98593.41;;;17.31;74.84
49297;BME280;35163;48.878;18.040;2023-05-21T04:23:42;98592.41;;;17.34;74.73
49297;BME280;35163;48.878;18.040;2023-05-21T04:26:08;98584.47;;;17.35;74.45
49297;BME280;35163;48.878;18.040;2023-05-21T04:28:35;98587.16;;;17.34;74.26
49297;BME280;35163;48.878;18.040;2023-05-21T04:31:02;98595.59;;;17.39;74.01
49297;BME280;35163;48.878;18.040;2023-05-21T04:33:31;98599.13;;;17.38;73.93
49297;BME280;35163;48.878;18.040;2023-05-21T04:35:58;98598.94;;;17.41;73.70
49297;BME280;35163;48.878;18.040;2023-05-21T04:38:24;98598.59;;;17.47;73.34
49297;BME280;35163;48.878;18.040;2023-05-21T04:40:51;98590.75;;;17.47;73.15
49297;BME280;35163;48.878;18.040;2023-05-21T04:43:20;98601.13;;;17.49;73.00
49297;BME280;35163;48.878;18.040;2023-05-21T04:45:53;98606.16;;;17.52;72.70
49297;BME280;35163;48.878;18.040;2023-05-21T04:48:23;98599.94;;;17.55;72.67
49297;BME280;35163;48.878;18.040;2023-05-21T04:50:50;98601.44;;;17.59;72.25
49297;BME280;35163;48.878;18.040;2023-05-21T04:53:22;98599.56;;;17.61;72.36
49297;BME280;35163;48.878;18.040;2023-05-21T04:55:50;98606.28;;;17.65;71.80
49297;BME280;35163;48.878;18.040;2023-05-21T04:58:17;98608.47;;;17.73;71.50
49297;BME280;35163;48.878;18.040;2023-05-21T05:00:44;98600.94;;;17.83;71.29
49297;BME280;35163;48.878;18.040;2023-05-21T05:03:16;98598.16;;;18.01;70.58
49297;BME280;35163;48.878;18.040;2023-05-21T05:05:43;98594.56;;;18.18;69.83
49297;BME280;35163;48.878;18.040;2023-05-21T05:08:10;98592.97;;;18.44;68.88
49297;BME280;35163;48.878;18.040;2023-05-21T05:10:40;98595.28;;;18.64;67.94
49297;BME280;35163;48.878;18.040;2023-05-21T05:13:07;98606.78;;;18.76;67.82
49297;BME280;35163;48.878;18.040;2023-05-21T05:15:34;98608.44;;;18.77;67.21
49297;BME280;35163;48.878;18.040;2023-05-21T05:18:01;98610.91;;;18.80;67.14
49297;BME280;35163;48.878;18.040;2023-05-21T05:20:30;98604.22;;;18.89;67.06
49297;BME280;35163;48.878;18.040;2023-05-21T05:22:57;98593.41;;;19.08;66.66
49297;BME280;35163;48.878;18.040;2023-05-21T05:25:24;98599.91;;;19.30;65.30
49297;BME280;35163;48.878;18.040;2023-05-21T05:27:51;98597.69;;;19.51;64.21
49297;BME280;35163;48.878;18.040;2023-05-21T05:30:17;98590.78;;;19.76;63.20
49297;BME280;35163;48.878;18.040;2023-05-21T05:32:44;98597.69;;;20.05;62.03
49297;BME280;35163;48.878;18.040;2023-05-21T05:35:12;98599.44;;;20.44;60.65
49297;BME280;35163;48.878;18.040;2023-05-21T05:37:38;98595.53;;;21.00;59.50
49297;BME280;35163;48.878;18.040;2023-05-21T05:40:05;98609.22;;;21.41;58.77
49297;BME280;35163;48.878;18.040;2023-05-21T05:42:33;98601.97;;;21.81;55.79
49297;BME280;35163;48.878;18.040;2023-05-21T05:45:00;98606.50;;;22.15;54.38
49297;BME280;35163;48.878;18.040;2023-05-21T05:47:26;98595.69;;;22.41;53.94
49297;BME280;35163;48.878;18.040;2023-05-21T05:49:55;98588.16;;;22.59;52.74
49297;BME280;35163;48.878;18.040;2023-05-21T05:52:22;98584.47;;;22.73;52.53
49297;BME280;35163;48.878;18.040;2023-05-21T05:54:49;98592.09;;;22.88;52.50
49297;BME280;35163;48.878;18.040;2023-05-21T05:57:16;98592.56;;;22.93;50.66
49297;BME280;35163;48.878;18.040;2023-05-21T05:59:42;98583.41;;;23.09;50.96
49297;BME280;35163;48.878;18.040;2023-05-21T06:02:09;98588.44;;;23.12;50.60
49297;BME280;35163;48.878;18.040;2023-05-21T06:04:36;98588.63;;;23.32;50.22
49297;BME280;35163;48.878;18.040;2023-05-21T06:07:05;98580.28;;;23.48;49.71
49297;BME280;35163;48.878;18.040;2023-05-21T06:09:36;98579.59;;;23.67;48.77
49297;BME280;35163;48.878;18.040;2023-05-21T06:12:07;98582.59;;;23.84;48.56
49297;BME280;35163;48.878;18.040;2023-05-21T06:14:37;98579.84;;;23.85;48.30
49297;BME280;35163;48.878;18.040;2023-05-21T06:17:07;98574.09;;;24.01;48.40
49297;BME280;35163;48.878;18.040;2023-05-21T06:19:33;98570.22;;;24.06;47.06
49297;BME280;35163;48.878;18.040;2023-05-21T06:22:00;98571.84;;;24.18;47.06
49297;BME280;35163;48.878;18.040;2023-05-21T06:24:27;98573.25;;;24.22;47.10
49297;BME280;35163;48.878;18.040;2023-05-21T06:26:53;98569.28;;;24.38;47.82
49297;BME280;35163;48.878;18.040;2023-05-21T06:29:20;98572.38;;;24.53;47.42
49297;BME280;35163;48.878;18.040;2023-05-21T06:31:47;98570.75;;;24.72;47.65
49297;BME280;35163;48.878;18.040;2023-05-21T06:34:14;98571.06;;;24.88;47.81
49297;BME280;35163;48.878;18.040;2023-05-21T06:36:41;98567.78;;;24.96;47.48
49297;BME280;35163;48.878;18.040;2023-05-21T06:39:07;98570.44;;;25.06;45.64
49297;BME280;35163;48.878;18.040;2023-05-21T06:41:34;98567.91;;;25.15;46.39
49297;BME280;35163;48.878;18.040;2023-05-21T06:44:01;98571.41;;;25.35;45.92
49297;BME280;35163;48.878;18.040;2023-05-21T06:46:27;98576.16;;;25.41;44.24
49297;BME280;35163;48.878;18.040;2023-05-21T06:48:54;98573.91;;;25.66;45.33
49297;BME280;35163;48.878;18.040;2023-05-21T06:51:21;98573.31;;;25.82;44.19
49297;BME280;35163;48.878;18.040;2023-05-21T06:53:48;98579.41;;;26.03;43.85
49297;BME280;35163;48.878;18.040;2023-05-21T06:56:14;98568.03;;;26.20;43.40
49297;BME280;35163;48.878;18.040;2023-05-21T06:58:41;98575.63;;;26.43;43.57
49297;BME280;35163;48.878;18.040;2023-05-21T07:01:08;98569.56;;;26.61;42.80
49297;BME280;35163;48.878;18.040;2023-05-21T07:03:35;98566.06;;;26.79;42.48
49297;BME280;35163;48.878;18.040;2023-05-21T07:06:02;98564.72;;;26.93;42.21
49297;BME280;35163;48.878;18.040;2023-05-21T07:08:28;98567.72;;;27.08;42.16
49297;BME280;35163;48.878;18.040;2023-05-21T07:10:55;98559.78;;;27.26;42.02
49297;BME280;35163;48.878;18.040;2023-05-21T07:13:22;98558.53;;;27.39;41.01
49297;BME280;35163;48.878;18.040;2023-05-21T07:15:48;98553.97;;;27.49;40.53
49297;BME280;35163;48.878;18.040;2023-05-21T07:18:15;98555.91;;;27.65;40.33
49297;BME280;35163;48.878;18.040;2023-05-21T07:20:45;98558.00;;;27.80;39.99
49297;BME280;35163;48.878;18.040;2023-05-21T07:23:11;98552.44;;;27.92;39.63
49297;BME280;35163;48.878;18.040;2023-05-21T07:25:40;98544.88;;;28.05;39.65
49297;BME280;35163;48.878;18.040;2023-05-21T07:28:07;98552.56;;;28.17;38.82
49297;BME280;35163;48.878;18.040;2023-05-21T07:30:34;98543.81;;;28.24;39.14
49297;BME280;35163;48.878;18.040;2023-05-21T07:33:01;98553.16;;;28.37;38.92
49297;BME280;35163;48.878;18.040;2023-05-21T07:35:29;98552.06;;;28.48;39.00
49297;BME280;35163;48.878;18.040;2023-05-21T07:37:56;98548.28;;;28.59;38.94
49297;BME280;35163;48.878;18.040;2023-05-21T07:40:23;98552.09;;;28.73;38.63
49297;BME280;35163;48.878;18.040;2023-05-21T07:42:52;98545.66;;;28.84;38.11
49297;BME280;35163;48.878;18.040;2023-05-21T07:45:19;98551.50;;;28.96;38.65
49297;BME280;35163;48.878;18.040;2023-05-21T07:47:46;98551.19;;;29.07;38.58
49297;BME280;35163;48.878;18.040;2023-05-21T07:50:13;98551.06;;;29.17;37.25
49297;BME280;35163;48.878;18.040;2023-05-21T07:52:40;98558.88;;;29.27;37.69
49297;BME280;35163;48.878;18.040;2023-05-21T07:55:08;98554.84;;;29.40;37.59
49297;BME280;35163;48.878;18.040;2023-05-21T07:57:35;98553.00;;;29.48;37.75
49297;BME280;35163;48.878;18.040;2023-05-21T08:00:04;98550.88;;;29.61;37.75
49297;BME280;35163;48.878;18.040;2023-05-21T08:02:35;98549.19;;;29.68;36.43
49297;BME280;35163;48.878;18.040;2023-05-21T08:05:05;98545.84;;;29.74;36.14
49297;BME280;35163;48.878;18.040;2023-05-21T08:07:32;98543.03;;;29.76;35.81
49297;BME280;35163;48.878;18.040;2023-05-21T08:09:59;98542.19;;;29.75;36.38
49297;BME280;35163;48.878;18.040;2023-05-21T08:12:28;98541.88;;;29.70;35.83
49297;BME280;35163;48.878;18.040;2023-05-21T08:14:56;98539.22;;;29.70;36.11
49297;BME280;35163;48.878;18.040;2023-05-21T08:17:23;98542.53;;;29.72;36.51
49297;BME280;35163;48.878;18.040;2023-05-21T08:19:50;98547.88;;;29.72;36.96
49297;BME280;35163;48.878;18.040;2023-05-21T08:22:17;98536.22;;;29.65;35.84
49297;BME280;35163;48.878;18.040;2023-05-21T08:24:43;98540.06;;;29.70;37.10
49297;BME280;35163;48.878;18.040;2023-05-21T08:27:10;98538.88;;;29.65;35.99
49297;BME280;35163;48.878;18.040;2023-05-21T08:29:37;98540.53;;;29.66;36.74
49297;BME280;35163;48.878;18.040;2023-05-21T08:32:04;98534.88;;;29.61;36.23
49297;BME280;35163;48.878;18.040;2023-05-21T08:34:31;98544.38;;;29.63;36.00
49297;BME280;35163;48.878;18.040;2023-05-21T08:36:57;98536.56;;;29.62;35.38
49297;BME280;35163;48.878;18.040;2023-05-21T08:39:24;98536.88;;;29.58;36.18
49297;BME280;35163;48.878;18.040;2023-05-21T08:41:56;98541.38;;;29.58;35.45
49297;BME280;35163;48.878;18.040;2023-05-21T08:44:32;98542.22;;;29.58;36.26
49297;BME280;35163;48.878;18.040;2023-05-21T08:47:01;98538.22;;;29.63;35.88
49297;BME280;35163;48.878;18.040;2023-05-21T08:49:32;98531.88;;;29.55;34.97
49297;BME280;35163;48.878;18.040;2023-05-21T08:52:03;98535.53;;;29.54;36.16
49297;BME280;35163;48.878;18.040;2023-05-21T08:54:30;98532.22;;;29.52;35.27
49297;BME280;35163;48.878;18.040;2023-05-21T08:56:57;98532.56;;;29.49;35.08
49297;BME280;35163;48.878;18.040;2023-05-21T08:59:27;98528.41;;;29.46;35.69
49297;BME280;35163;48.878;18.040;2023-05-21T09:01:57;98522.91;;;29.40;34.47
49297;BME280;35163;48.878;18.040;2023-05-21T09:04:27;98531.56;;;29.33;35.11
49297;BME280;35163;48.878;18.040;2023-05-21T09:06:54;98532.06;;;29.29;34.53
49297;BME280;35163;48.878;18.040;2023-05-21T09:09:47;98533.41;;;29.25;34.79
49297;BME280;35163;48.878;18.040;2023-05-21T09:12:15;98536.72;;;29.27;35.10
49297;BME280;35163;48.878;18.040;2023-05-21T09:14:42;98535.59;;;29.29;35.13
49297;BME280;35163;48.878;18.040;2023-05-21T09:17:14;98538.56;;;29.26;34.88
49297;BME280;35163;48.878;18.040;2023-05-21T09:20:10;98533.91;;;29.20;34.83
49297;BME280;35163;48.878;18.040;2023-05-21T09:22:44;98529.41;;;29.20;35.64
49297;BME280;35163;48.878;18.040;2023-05-21T09:25:13;98530.91;;;29.15;35.09
49297;BME280;35163;48.878;18.040;2023-05-21T09:27:40;98527.91;;;29.09;34.62
49297;BME280;35163;48.878;18.040;2023-05-21T09:30:13;98527.06;;;29.09;35.25
49297;BME280;35163;48.878;18.040;2023-05-21T09:32:40;98526.25;;;29.08;34.76
49297;BME280;35163;48.878;18.040;2023-05-21T09:35:11;98530.22;;;29.13;35.70
49297;BME280;35163;48.878;18.040;2023-05-21T09:40:13;98525.59;;;29.15;35.29
49297;BME280;35163;48.878;18.040;2023-05-21T09:42:43;98518.63;;;29.14;35.04
49297;BME280;35163;48.878;18.040;2023-05-21T09:45:17;98514.09;;;29.06;34.09
49297;BME280;35163;48.878;18.040;2023-05-21T09:47:44;98511.28;;;28.99;34.09
49297;BME280;35163;48.878;18.040;2023-05-21T09:50:12;98517.59;;;28.98;34.22
49297;BME280;35163;48.878;18.040;2023-05-21T09:52:45;98516.41;;;28.92;34.12
49297;BME280;35163;48.878;18.040;2023-05-21T09:55:13;98516.06;;;28.95;34.77
49297;BME280;35163;48.878;18.040;2023-05-21T09:57:44;98520.44;;;29.05;36.98
49297;BME280;35163;48.878;18.040;2023-05-21T10:00:21;98519.94;;;29.09;36.88
49297;BME280;35163;48.878;18.040;2023-05-21T10:02:53;98514.78;;;29.08;37.09
49297;BME280;35163;48.878;18.040;2023-05-21T10:05:24;98513.94;;;29.07;36.88
49297;BME280;35163;48.878;18.040;2023-05-21T10:07:52;98516.09;;;29.04;36.33
49297;BME280;35163;48.878;18.040;2023-05-21T10:10:22;98508.09;;;29.04;36.77
49297;BME280;35163;48.878;18.040;2023-05-21T10:12:54;98504.81;;;29.02;37.05
49297;BME280;35163;48.878;18.040;2023-05-21T10:15:26;98509.28;;;29.01;36.59
49297;BME280;35163;48.878;18.040;2023-05-21T10:17:54;98499.66;;;29.00;36.51
49297;BME280;35163;48.878;18.040;2023-05-21T10:20:21;98502.94;;;28.94;35.76
49297;BME280;35163;48.878;18.040;2023-05-21T10:22:49;98498.28;;;28.96;35.35
49297;BME280;35163;48.878;18.040;2023-05-21T10:25:16;98498.78;;;28.91;34.98
49297;BME280;35163;48.878;18.040;2023-05-21T10:27:44;98490.63;;;28.93;34.52
49297;BME280;35163;48.878;18.040;2023-05-21T10:30:11;98494.59;;;28.89;33.34
49297;BME280;35163;48.878;18.040;2023-05-21T10:32:39;98492.97;;;28.87;33.81
49297;BME280;35163;48.878;18.040;2023-05-21T10:35:10;98489.63;;;28.85;32.95
49297;BME280;35163;48.878;18.040;2023-05-21T10:37:38;98490.97;;;28.90;34.94
49297;BME280;35163;48.878;18.040;2023-05-21T10:40:06;98486.16;;;28.93;35.25
49297;BME280;35163;48.878;18.040;2023-05-21T10:48:27;98482.69;;;29.01;36.10
49297;BME280;35163;48.878;18.040;2023-05-21T10:51:41;98482.34;;;29.04;36.18
49297;BME280;35163;48.878;18.040;2023-05-21T10:54:31;98483.69;;;29.08;36.67
49297;BME280;35163;48.878;18.040;2023-05-21T10:59:44;98469.19;;;29.11;35.43
49297;BME280;35163;48.878;18.040;2023-05-21T11:02:14;98476.66;;;29.16;36.16
49297;BME280;35163;48.878;18.040;2023-05-21T11:04:44;98478.03;;;29.11;34.75
49297;BME280;35163;48.878;18.040;2023-05-21T11:07:11;98469.88;;;29.13;34.58
49297;BME280;35163;48.878;18.040;2023-05-21T11:09:38;98472.69;;;29.11;34.42
49297;BME280;35163;48.878;18.040;2023-05-21T11:12:04;98476.34;;;29.10;34.97
49297;BME280;35163;48.878;18.040;2023-05-21T11:14:38;98475.38;;;29.03;33.17
49297;BME280;35163;48.878;18.040;2023-05-21T11:19:42;98462.41;;;29.00;34.03
49297;BME280;35163;48.878;18.040;2023-05-21T11:24:48;98454.06;;;28.95;35.27
49297;BME280;35163;48.878;18.040;2023-05-21T11:27:36;98458.03;;;28.91;33.70
49297;BME280;35163;48.878;18.040;2023-05-21T11:30:08;98455.38;;;28.91;33.33
49297;BME280;35163;48.878;18.040;2023-05-21T11:32:37;98455.22;;;28.84;33.74
49297;BME280;35163;48.878;18.040;2023-05-21T11:35:05;98455.88;;;28.86;34.32
49297;BME280;35163;48.878;18.040;2023-05-21T11:37:33;98455.72;;;28.87;35.27
49297;BME280;35163;48.878;18.040;2023-05-21T11:40:21;98447.41;;;28.82;34.04
49297;BME280;35163;48.878;18.040;2023-05-21T11:42:50;98454.88;;;28.87;34.96
49297;BME280;35163;48.878;18.040;2023-05-21T11:45:19;98438.41;;;28.92;35.09
49297;BME280;35163;48.878;18.040;2023-05-21T11:47:47;98438.41;;;28.92;33.86
49297;BME280;35163;48.878;18.040;2023-05-21T11:50:15;98430.44;;;28.92;34.52
49297;BME280;35163;48.878;18.040;2023-05-21T11:52:43;98434.09;;;28.91;33.92
49297;BME280;35163;48.878;18.040;2023-05-21T11:55:16;98429.63;;;28.91;33.45
49297;BME280;35163;48.878;18.040;2023-05-21T11:57:47;98421.81;;;28.90;33.19
49297;BME280;35163;48.878;18.040;2023-05-21T12:00:15;98419.78;;;28.92;33.92
49297;BME280;35163;48.878;18.040;2023-05-21T12:02:48;98420.63;;;28.92;33.54
49297;BME280;35163;48.878;18.040;2023-05-21T12:05:15;98419.78;;;28.92;33.64
49297;BME280;35163;48.878;18.040;2023-05-21T12:07:45;98409.00;;;28.93;32.80
49297;BME280;35163;48.878;18.040;2023-05-21T12:10:19;98407.16;;;28.94;32.01
49297;BME280;35163;48.878;18.040;2023-05-21T12:12:46;98406.00;;;28.96;31.60
49297;BME280;35163;48.878;18.040;2023-05-21T12:15:20;98399.66;;;28.97;32.31
49297;BME280;35163;48.878;18.040;2023-05-21T12:17:48;98399.00;;;28.95;31.69
49297;BME280;35163;48.878;18.040;2023-05-21T12:20:18;98398.81;;;28.97;31.79
49297;BME280;35163;48.878;18.040;2023-05-21T12:22:47;98394.22;;;28.99;31.70
49297;BME280;35163;48.878;18.040;2023-05-21T12:25:17;98394.72;;;29.03;32.46
49297;BME280;35163;48.878;18.040;2023-05-21T12:27:49;98401.53;;;29.05;32.05
49297;BME280;35163;48.878;18.040;2023-05-21T12:30:24;98396.88;;;28.99;30.75
49297;BME280;35163;48.878;18.040;2023-05-21T12:32:51;98401.38;;;29.07;31.90
49297;BME280;35163;48.878;18.040;2023-05-21T12:35:20;98393.72;;;29.12;32.82
49297;BME280;35163;48.878;18.040;2023-05-21T12:37:48;98395.69;;;29.18;33.17
49297;BME280;35163;48.878;18.040;2023-05-21T12:40:18;98387.53;;;29.20;32.15
49297;BME280;35163;48.878;18.040;2023-05-21T12:42:45;98390.34;;;29.18;30.97
49297;BME280;35163;48.878;18.040;2023-05-21T12:45:12;98389.50;;;29.18;30.76
49297;BME280;35163;48.878;18.040;2023-05-21T12:47:39;98390.19;;;29.20;30.88
49297;BME280;35163;48.878;18.040;2023-05-21T12:50:09;98382.53;;;29.17;30.86
49297;BME280;35163;48.878;18.040;2023-05-21T12:52:39;98389.19;;;29.13;31.26
49297;BME280;35163;48.878;18.040;2023-05-21T12:55:14;98394.84;;;29.09;30.59
49297;BME280;35163;48.878;18.040;2023-05-21T12:57:42;98387.06;;;28.99;31.13
49297;BME280;35163;48.878;18.040;2023-05-21T13:00:09;98392.88;;;28.95;30.86
49297;BME280;35163;48.878;18.040;2023-05-21T13:02:41;98402.50;;;28.87;31.24
49297;BME280;35163;48.878;18.040;2023-05-21T13:05:15;98404.69;;;28.59;32.08
49297;BME280;35163;48.878;18.040;2023-05-21T13:07:46;98413.09;;;28.29;32.74
49297;BME280;35163;48.878;18.040;2023-05-21T13:10:17;98419.69;;;28.08;33.33
49297;BME280;35163;48.878;18.040;2023-05-21T13:12:46;98425.75;;;27.92;33.34
49297;BME280;35163;48.878;18.040;2023-05-21T13:15:15;98421.41;;;27.83;32.96
49297;BME280;35163;48.878;18.040;2023-05-21T13:17:44;98425.19;;;27.72;34.34
49297;BME280;35163;48.878;18.040;2023-05-21T13:20:17;98434.16;;;27.71;33.51